sensor_id;sensor_type;location;lat;lon;timestamp;P1;durP1;ratioP1;P2;durP2;ratioP2
32760;SDS011;19126;47.472;7.850;2023-06-14T00:02:20;11.60;;;5.03;;
32760;SDS011;19126;47.472;7.850;2023-06-14T00:04:47;12.32;;;5.45;;
32760;SDS011;19126;47.472;7.850;2023-06-14T00:07:17;6.85;;;4.88;;
32760;SDS011;19126;47.472;7.850;2023-06-14T00:09:45;9.30;;;4.70;;
32760;SDS011;19126;47.472;7.850;2023-06-14T00:12:12;10.65;;;4.93;;
32760;SDS011;19126;47.472;7.850;2023-06-14T00:14:41;12.13;;;4.72;;
32760;SDS011;19126;47.472;7.850;2023-06-14T00:17:08;14.13;;;4.80;;
32760;SDS011;19126;47.472;7.850;2023-06-14T00:19:35;8.93;;;4.93;;
32760;SDS011;19126;47.472;7.850;2023-06-14T00:22:03;11.30;;;5.85;;
32760;SDS011;19126;47.472;7.850;2023-06-14T00:24:31;6.78;;;4.75;;
32760;SDS011;19126;47.472;7.850;2023-06-14T00:26:59;6.03;;;4.55;;
32760;SDS011;19126;47.472;7.850;2023-06-14T00:29:26;5.35;;;4.60;;
32760;SDS011;19126;47.472;7.850;2023-06-14T00:31:54;9.57;;;5.13;;
32760;SDS011;19126;47.472;7.850;2023-06-14T00:34:22;8.13;;;4.95;;
32760;SDS011;19126;47.472;7.850;2023-06-14T00:36:49;6.40;;;4.53;;
32760;SDS011;19126;47.472;7.850;2023-06-14T00:39:16;12.95;;;4.75;;
32760;SDS011;19126;47.472;7.850;2023-06-14T00:41:43;8.75;;;5.20;;
32760;SDS011;19126;47.472;7.850;2023-06-14T00:44:11;7.07;;;5.00;;
32760;SDS011;19126;47.472;7.850;2023-06-14T00:46:42;8.80;;;5.20;;
32760;SDS011;19126;47.472;7.850;2023-06-14T00:49:12;6.20;;;4.50;;
32760;SDS011;19126;47.472;7.850;2023-06-14T00:51:42;11.03;;;4.93;;
32760;SDS011;19126;47.472;7.850;2023-06-14T00:54:09;8.57;;;5.15;;
32760;SDS011;19126;47.472;7.850;2023-06-14T00:56:37;6.30;;;4.38;;
32760;SDS011;19126;47.472;7.850;2023-06-14T00:59:05;7.57;;;4.93;;
32760;SDS011;19126;47.472;7.850;2023-06-14T01:01:33;6.18;;;4.53;;
32760;SDS011;19126;47.472;7.850;2023-06-14T01:04:00;6.82;;;4.68;;
32760;SDS011;19126;47.472;7.850;2023-06-14T01:06:30;7.38;;;5.07;;
32760;SDS011;19126;47.472;7.850;2023-06-14T01:09:09;8.77;;;4.78;;
32760;SDS011;19126;47.472;7.850;2023-06-14T01:11:47;8.30;;;5.05;;
32760;SDS011;19126;47.472;7.850;2023-06-14T01:14:23;5.55;;;4.57;;
32760;SDS011;19126;47.472;7.850;2023-06-14T01:16:51;11.10;;;4.57;;
32760;SDS011;19126;47.472;7.850;2023-06-14T01:19:20;6.10;;;4.70;;
32760;SDS011;19126;47.472;7.850;2023-06-14T01:21:52;10.13;;;5.28;;
32760;SDS011;19126;47.472;7.850;2023-06-14T01:24:21;9.40;;;4.85;;
32760;SDS011;19126;47.472;7.850;2023-06-14T01:26:51;9.23;;;4.82;;
32760;SDS011;19126;47.472;7.850;2023-06-14T01:29:21;6.40;;;4.53;;
32760;SDS011;19126;47.472;7.850;2023-06-14T01:31:50;8.52;;;4.68;;
32760;SDS011;19126;47.472;7.850;2023-06-14T01:34:19;8.73;;;4.72;;
32760;SDS011;19126;47.472;7.850;2023-06-14T01:36:46;5.72;;;4.57;;
32760;SDS011;19126;47.472;7.850;2023-06-14T01:39:16;6.55;;;4.90;;
32760;SDS011;19126;47.472;7.850;2023-06-14T01:41:46;8.40;;;4.43;;
32760;SDS011;19126;47.472;7.850;2023-06-14T01:44:16;9.53;;;4.77;;
32760;SDS011;19126;47.472;7.850;2023-06-14T01:46:45;19.42;;;4.88;;
32760;SDS011;19126;47.472;7.850;2023-06-14T01:49:12;6.75;;;4.40;;
32760;SDS011;19126;47.472;7.850;2023-06-14T01:51:39;8.23;;;5.32;;
32760;SDS011;19126;47.472;7.850;2023-06-14T01:54:07;6.82;;;4.72;;
32760;SDS011;19126;47.472;7.850;2023-06-14T01:56:34;9.90;;;4.97;;
32760;SDS011;19126;47.472;7.850;2023-06-14T01:59:03;6.65;;;4.47;;
32760;SDS011;19126;47.472;7.850;2023-06-14T02:01:30;14.27;;;5.10;;
32760;SDS011;19126;47.472;7.850;2023-06-14T02:03:59;8.90;;;5.20;;
32760;SDS011;19126;47.472;7.850;2023-06-14T02:06:26;6.68;;;4.78;;
32760;SDS011;19126;47.472;7.850;2023-06-14T02:08:54;10.13;;;4.78;;
32760;SDS011;19126;47.472;7.850;2023-06-14T02:11:21;7.88;;;5.20;;
32760;SDS011;19126;47.472;7.850;2023-06-14T02:13:48;6.28;;;4.45;;
32760;SDS011;19126;47.472;7.850;2023-06-14T02:16:17;8.48;;;5.72;;
32760;SDS011;19126;47.472;7.850;2023-06-14T02:18:44;8.50;;;5.50;;
32760;SDS011;19126;47.472;7.850;2023-06-14T02:21:12;6.35;;;4.88;;
32760;SDS011;19126;47.472;7.850;2023-06-14T02:23:39;8.52;;;4.88;;
32760;SDS011;19126;47.472;7.850;2023-06-14T02:26:06;8.05;;;5.00;;
32760;SDS011;19126;47.472;7.850;2023-06-14T02:28:34;9.93;;;4.68;;
32760;SDS011;19126;47.472;7.850;2023-06-14T02:31:01;7.13;;;5.10;;
32760;SDS011;19126;47.472;7.850;2023-06-14T02:33:30;9.07;;;4.93;;
32760;SDS011;19126;47.472;7.850;2023-06-14T02:35:57;7.25;;;4.90;;
32760;SDS011;19126;47.472;7.850;2023-06-14T02:38:25;10.73;;;5.97;;
32760;SDS011;19126;47.472;7.850;2023-06-14T02:40:52;7.07;;;5.10;;
32760;SDS011;19126;47.472;7.850;2023-06-14T02:43:19;9.90;;;5.65;;
32760;SDS011;19126;47.472;7.850;2023-06-14T02:45:47;7.63;;;4.78;;
32760;SDS011;19126;47.472;7.850;2023-06-14T02:48:14;12.57;;;5.18;;
32760;SDS011;19126;47.472;7.850;2023-06-14T02:50:43;6.63;;;4.80;;
32760;SDS011;19126;47.472;7.850;2023-06-14T02:53:11;12.68;;;5.25;;
32760;SDS011;19126;47.472;7.850;2023-06-14T02:55:38;7.40;;;4.93;;
32760;SDS011;19126;47.472;7.850;2023-06-14T02:58:05;7.95;;;5.30;;
32760;SDS011;19126;47.472;7.850;2023-06-14T03:00:32;9.13;;;4.93;;
32760;SDS011;19126;47.472;7.850;2023-06-14T03:03:00;10.30;;;4.80;;
32760;SDS011;19126;47.472;7.850;2023-06-14T03:05:29;10.27;;;4.70;;
32760;SDS011;19126;47.472;7.850;2023-06-14T03:07:59;6.53;;;4.80;;
32760;SDS011;19126;47.472;7.850;2023-06-14T03:10:27;14.60;;;5.53;;
32760;SDS011;19126;47.472;7.850;2023-06-14T03:12:54;8.13;;;5.43;;
32760;SDS011;19126;47.472;7.850;2023-06-14T03:15:22;7.47;;;5.30;;
32760;SDS011;19126;47.472;7.850;2023-06-14T03:17:49;6.50;;;4.55;;
32760;SDS011;19126;47.472;7.850;2023-06-14T03:20:18;6.18;;;5.05;;
32760;SDS011;19126;47.472;7.850;2023-06-14T03:22:46;8.05;;;4.80;;
32760;SDS011;19126;47.472;7.850;2023-06-14T03:25:15;7.05;;;4.90;;
32760;SDS011;19126;47.472;7.850;2023-06-14T03:27:43;11.45;;;5.20;;
32760;SDS011;19126;47.472;7.850;2023-06-14T03:30:11;9.73;;;5.07;;
32760;SDS011;19126;47.472;7.850;2023-06-14T03:32:39;7.22;;;5.13;;
32760;SDS011;19126;47.472;7.850;2023-06-14T03:35:06;8.98;;;5.18;;
32760;SDS011;19126;47.472;7.850;2023-06-14T03:37:41;11.43;;;5.32;;
32760;SDS011;19126;47.472;7.850;2023-06-14T03:40:09;9.05;;;5.00;;
32760;SDS011;19126;47.472;7.850;2023-06-14T03:42:40;12.23;;;5.57;;
32760;SDS011;19126;47.472;7.850;2023-06-14T03:45:07;8.68;;;5.60;;
32760;SDS011;19126;47.472;7.850;2023-06-14T03:47:35;10.93;;;5.13;;
32760;SDS011;19126;47.472;7.850;2023-06-14T03:50:02;6.65;;;4.72;;
32760;SDS011;19126;47.472;7.850;2023-06-14T03:52:31;12.65;;;5.60;;
32760;SDS011;19126;47.472;7.850;2023-06-14T03:54:58;11.43;;;5.30;;
32760;SDS011;19126;47.472;7.850;2023-06-14T03:57:26;8.98;;;5.13;;
32760;SDS011;19126;47.472;7.850;2023-06-14T03:59:55;13.60;;;5.60;;
32760;SDS011;19126;47.472;7.850;2023-06-14T04:02:22;7.40;;;5.50;;
32760;SDS011;19126;47.472;7.850;2023-06-14T04:04:50;9.57;;;5.70;;
32760;SDS011;19126;47.472;7.850;2023-06-14T04:07:19;9.10;;;5.40;;
32760;SDS011;19126;47.472;7.850;2023-06-14T04:09:46;8.93;;;5.22;;
32760;SDS011;19126;47.472;7.850;2023-06-14T04:12:14;9.13;;;5.07;;
32760;SDS011;19126;47.472;7.850;2023-06-14T04:14:42;8.73;;;5.28;;
32760;SDS011;19126;47.472;7.850;2023-06-14T04:17:11;11.48;;;5.57;;
32760;SDS011;19126;47.472;7.850;2023-06-14T04:19:38;10.00;;;5.55;;
32760;SDS011;19126;47.472;7.850;2023-06-14T04:22:05;9.85;;;5.25;;
32760;SDS011;19126;47.472;7.850;2023-06-14T04:24:33;9.27;;;5.05;;
32760;SDS011;19126;47.472;7.850;2023-06-14T04:27:01;9.20;;;5.35;;
32760;SDS011;19126;47.472;7.850;2023-06-14T04:29:28;9.90;;;5.15;;
32760;SDS011;19126;47.472;7.850;2023-06-14T04:31:56;7.85;;;5.30;;
32760;SDS011;19126;47.472;7.850;2023-06-14T04:34:27;11.20;;;5.53;;
32760;SDS011;19126;47.472;7.850;2023-06-14T04:36:56;11.15;;;5.47;;
32760;SDS011;19126;47.472;7.850;2023-06-14T04:39:24;11.30;;;5.70;;
32760;SDS011;19126;47.472;7.850;2023-06-14T04:41:52;7.03;;;5.25;;
32760;SDS011;19126;47.472;7.850;2023-06-14T04:44:22;12.38;;;5.15;;
32760;SDS011;19126;47.472;7.850;2023-06-14T04:46:55;6.85;;;4.72;;
32760;SDS011;19126;47.472;7.850;2023-06-14T04:49:23;12.77;;;5.68;;
32760;SDS011;19126;47.472;7.850;2023-06-14T04:51:53;9.13;;;5.70;;
32760;SDS011;19126;47.472;7.850;2023-06-14T04:56:52;11.65;;;5.63;;
32760;SDS011;19126;47.472;7.850;2023-06-14T04:59:20;12.20;;;5.32;;
32760;SDS011;19126;47.472;7.850;2023-06-14T05:01:48;8.73;;;5.28;;
32760;SDS011;19126;47.472;7.850;2023-06-14T05:04:16;11.10;;;5.85;;
32760;SDS011;19126;47.472;7.850;2023-06-14T05:06:45;8.02;;;4.90;;
32760;SDS011;19126;47.472;7.850;2023-06-14T05:09:14;12.25;;;5.47;;
32760;SDS011;19126;47.472;7.850;2023-06-14T05:11:42;9.48;;;5.80;;
32760;SDS011;19126;47.472;7.850;2023-06-14T05:14:10;7.07;;;5.32;;
32760;SDS011;19126;47.472;7.850;2023-06-14T05:16:37;7.30;;;5.13;;
32760;SDS011;19126;47.472;7.850;2023-06-14T05:19:05;8.68;;;5.07;;
32760;SDS011;19126;47.472;7.850;2023-06-14T05:21:33;6.95;;;4.63;;
32760;SDS011;19126;47.472;7.850;2023-06-14T05:24:00;13.63;;;5.60;;
32760;SDS011;19126;47.472;7.850;2023-06-14T05:26:29;8.13;;;5.10;;
32760;SDS011;19126;47.472;7.850;2023-06-14T05:28:57;7.47;;;4.75;;
32760;SDS011;19126;47.472;7.850;2023-06-14T05:31:25;11.43;;;4.82;;
32760;SDS011;19126;47.472;7.850;2023-06-14T05:33:53;9.77;;;5.30;;
32760;SDS011;19126;47.472;7.850;2023-06-14T05:36:20;8.82;;;4.95;;
32760;SDS011;19126;47.472;7.850;2023-06-14T05:38:48;11.88;;;5.05;;
32760;SDS011;19126;47.472;7.850;2023-06-14T05:41:15;8.65;;;4.95;;
32760;SDS011;19126;47.472;7.850;2023-06-14T05:43:44;6.78;;;4.72;;
32760;SDS011;19126;47.472;7.850;2023-06-14T05:46:11;13.90;;;5.90;;
32760;SDS011;19126;47.472;7.850;2023-06-14T05:48:39;9.63;;;4.20;;
32760;SDS011;19126;47.472;7.850;2023-06-14T05:51:07;8.77;;;4.30;;
32760;SDS011;19126;47.472;7.850;2023-06-14T05:53:34;11.25;;;4.82;;
32760;SDS011;19126;47.472;7.850;2023-06-14T05:56:02;12.93;;;5.00;;
32760;SDS011;19126;47.472;7.850;2023-06-14T05:58:29;12.88;;;4.47;;
32760;SDS011;19126;47.472;7.850;2023-06-14T06:00:58;7.65;;;4.20;;
32760;SDS011;19126;47.472;7.850;2023-06-14T06:03:26;9.05;;;4.70;;
32760;SDS011;19126;47.472;7.850;2023-06-14T06:05:54;6.20;;;4.03;;
32760;SDS011;19126;47.472;7.850;2023-06-14T06:08:22;10.52;;;4.70;;
32760;SDS011;19126;47.472;7.850;2023-06-14T06:10:49;9.00;;;4.38;;
32760;SDS011;19126;47.472;7.850;2023-06-14T06:13:17;9.00;;;4.28;;
32760;SDS011;19126;47.472;7.850;2023-06-14T06:15:44;5.78;;;3.90;;
32760;SDS011;19126;47.472;7.850;2023-06-14T06:18:13;13.48;;;4.38;;
32760;SDS011;19126;47.472;7.850;2023-06-14T06:20:40;11.07;;;4.82;;
32760;SDS011;19126;47.472;7.850;2023-06-14T06:23:09;5.68;;;4.32;;
32760;SDS011;19126;47.472;7.850;2023-06-14T06:25:36;15.88;;;4.68;;
32760;SDS011;19126;47.472;7.850;2023-06-14T06:28:03;20.75;;;5.57;;
32760;SDS011;19126;47.472;7.850;2023-06-14T06:30:33;7.00;;;4.30;;
32760;SDS011;19126;47.472;7.850;2023-06-14T06:33:02;7.38;;;4.70;;
32760;SDS011;19126;47.472;7.850;2023-06-14T06:35:31;9.43;;;5.05;;
32760;SDS011;19126;47.472;7.850;2023-06-14T06:37:58;5.50;;;3.78;;
32760;SDS011;19126;47.472;7.850;2023-06-14T06:40:26;8.63;;;4.20;;
32760;SDS011;19126;47.472;7.850;2023-06-14T06:42:54;8.00;;;4.45;;
32760;SDS011;19126;47.472;7.850;2023-06-14T06:45:21;16.23;;;5.00;;
32760;SDS011;19126;47.472;7.850;2023-06-14T06:47:50;12.82;;;4.80;;
32760;SDS011;19126;47.472;7.850;2023-06-14T06:50:17;39.08;;;5.00;;
32760;SDS011;19126;47.472;7.850;2023-06-14T06:52:49;9.48;;;3.85;;
32760;SDS011;19126;47.472;7.850;2023-06-14T06:55:17;7.80;;;4.25;;
32760;SDS011;19126;47.472;7.850;2023-06-14T06:57:45;5.47;;;3.58;;
32760;SDS011;19126;47.472;7.850;2023-06-14T07:00:12;14.55;;;4.60;;
32760;SDS011;19126;47.472;7.850;2023-06-14T07:02:40;15.10;;;3.88;;
32760;SDS011;19126;47.472;7.850;2023-06-14T07:05:07;9.93;;;4.32;;
32760;SDS011;19126;47.472;7.850;2023-06-14T07:07:35;6.75;;;4.10;;
32760;SDS011;19126;47.472;7.850;2023-06-14T07:10:04;11.48;;;4.47;;
32760;SDS011;19126;47.472;7.850;2023-06-14T07:12:32;7.95;;;4.25;;
32760;SDS011;19126;47.472;7.850;2023-06-14T07:15:04;10.20;;;4.40;;
32760;SDS011;19126;47.472;7.850;2023-06-14T07:17:34;18.45;;;4.35;;
32760;SDS011;19126;47.472;7.850;2023-06-14T07:20:02;5.65;;;4.20;;
32760;SDS011;19126;47.472;7.850;2023-06-14T07:22:38;13.57;;;3.83;;
32760;SDS011;19126;47.472;7.850;2023-06-14T07:25:09;11.02;;;3.60;;
32760;SDS011;19126;47.472;7.850;2023-06-14T07:27:39;6.93;;;3.85;;
32760;SDS011;19126;47.472;7.850;2023-06-14T07:30:07;9.35;;;3.58;;
32760;SDS011;19126;47.472;7.850;2023-06-14T07:32:35;7.32;;;3.75;;
32760;SDS011;19126;47.472;7.850;2023-06-14T07:35:04;6.85;;;3.53;;
32760;SDS011;19126;47.472;7.850;2023-06-14T07:37:32;8.00;;;3.15;;
32760;SDS011;19126;47.472;7.850;2023-06-14T07:40:00;4.78;;;3.40;;
32760;SDS011;19126;47.472;7.850;2023-06-14T07:45:01;4.80;;;3.65;;
32760;SDS011;19126;47.472;7.850;2023-06-14T07:47:29;7.47;;;3.47;;
32760;SDS011;19126;47.472;7.850;2023-06-14T07:49:56;8.80;;;3.83;;
32760;SDS011;19126;47.472;7.850;2023-06-14T07:52:24;8.93;;;3.75;;
32760;SDS011;19126;47.472;7.850;2023-06-14T07:54:51;4.75;;;2.97;;
32760;SDS011;19126;47.472;7.850;2023-06-14T07:57:18;9.32;;;3.45;;
32760;SDS011;19126;47.472;7.850;2023-06-14T07:59:47;12.32;;;3.80;;
32760;SDS011;19126;47.472;7.850;2023-06-14T08:02:15;4.57;;;3.50;;
32760;SDS011;19126;47.472;7.850;2023-06-14T08:04:42;4.97;;;3.22;;
32760;SDS011;19126;47.472;7.850;2023-06-14T08:07:10;5.78;;;3.38;;
32760;SDS011;19126;47.472;7.850;2023-06-14T08:09:38;9.10;;;3.50;;
32760;SDS011;19126;47.472;7.850;2023-06-14T08:12:05;9.55;;;3.05;;
32760;SDS011;19126;47.472;7.850;2023-06-14T08:14:35;4.95;;;3.28;;
32760;SDS011;19126;47.472;7.850;2023-06-14T08:17:04;6.60;;;3.58;;
32760;SDS011;19126;47.472;7.850;2023-06-14T08:19:31;3.80;;;3.33;;
32760;SDS011;19126;47.472;7.850;2023-06-14T08:21:59;5.05;;;3.63;;
32760;SDS011;19126;47.472;7.850;2023-06-14T08:24:26;7.43;;;3.83;;
32760;SDS011;19126;47.472;7.850;2023-06-14T08:26:54;5.20;;;3.28;;
32760;SDS011;19126;47.472;7.850;2023-06-14T08:29:22;6.43;;;3.20;;
32760;SDS011;19126;47.472;7.850;2023-06-14T08:31:50;4.45;;;3.38;;
32760;SDS011;19126;47.472;7.850;2023-06-14T08:34:18;5.00;;;3.40;;
32760;SDS011;19126;47.472;7.850;2023-06-14T08:36:46;6.82;;;3.42;;
32760;SDS011;19126;47.472;7.850;2023-06-14T08:39:13;5.13;;;3.08;;
32760;SDS011;19126;47.472;7.850;2023-06-14T08:41:41;7.80;;;3.45;;
32760;SDS011;19126;47.472;7.850;2023-06-14T08:44:12;8.00;;;3.33;;
32760;SDS011;19126;47.472;7.850;2023-06-14T08:46:40;13.90;;;4.65;;
32760;SDS011;19126;47.472;7.850;2023-06-14T08:49:10;6.88;;;3.13;;
32760;SDS011;19126;47.472;7.850;2023-06-14T08:51:40;6.57;;;3.28;;
32760;SDS011;19126;47.472;7.850;2023-06-14T08:54:10;7.32;;;3.33;;
32760;SDS011;19126;47.472;7.850;2023-06-14T08:56:39;8.45;;;3.10;;
32760;SDS011;19126;47.472;7.850;2023-06-14T08:59:09;8.82;;;3.80;;
32760;SDS011;19126;47.472;7.850;2023-06-14T09:01:36;8.05;;;3.22;;
32760;SDS011;19126;47.472;7.850;2023-06-14T09:04:04;4.53;;;3.35;;
32760;SDS011;19126;47.472;7.850;2023-06-14T09:06:32;4.88;;;3.60;;
32760;SDS011;19126;47.472;7.850;2023-06-14T09:09:03;7.20;;;3.58;;
32760;SDS011;19126;47.472;7.850;2023-06-14T09:11:30;9.52;;;3.08;;
32760;SDS011;19126;47.472;7.850;2023-06-14T09:13:57;5.78;;;3.05;;
32760;SDS011;19126;47.472;7.850;2023-06-14T09:16:25;10.65;;;3.83;;
32760;SDS011;19126;47.472;7.850;2023-06-14T09:18:53;8.45;;;3.33;;
32760;SDS011;19126;47.472;7.850;2023-06-14T09:21:20;8.05;;;3.53;;
32760;SDS011;19126;47.472;7.850;2023-06-14T09:23:48;8.98;;;3.50;;
32760;SDS011;19126;47.472;7.850;2023-06-14T09:26:17;6.90;;;3.33;;
32760;SDS011;19126;47.472;7.850;2023-06-14T09:28:47;4.53;;;3.15;;
32760;SDS011;19126;47.472;7.850;2023-06-14T09:31:16;8.07;;;3.83;;
32760;SDS011;19126;47.472;7.850;2023-06-14T09:33:46;5.88;;;3.40;;
32760;SDS011;19126;47.472;7.850;2023-06-14T09:36:15;9.85;;;3.95;;
32760;SDS011;19126;47.472;7.850;2023-06-14T09:38:51;14.60;;;3.75;;
32760;SDS011;19126;47.472;7.850;2023-06-14T09:41:21;5.25;;;3.45;;
32760;SDS011;19126;47.472;7.850;2023-06-14T09:43:58;8.32;;;3.83;;
32760;SDS011;19126;47.472;7.850;2023-06-14T09:46:27;9.75;;;3.60;;
32760;SDS011;19126;47.472;7.850;2023-06-14T09:48:55;6.20;;;3.53;;
32760;SDS011;19126;47.472;7.850;2023-06-14T09:51:23;6.53;;;3.50;;
32760;SDS011;19126;47.472;7.850;2023-06-14T09:53:51;8.75;;;3.78;;
32760;SDS011;19126;47.472;7.850;2023-06-14T09:56:23;8.07;;;3.77;;
32760;SDS011;19126;47.472;7.850;2023-06-14T09:58:55;5.50;;;3.28;;
32760;SDS011;19126;47.472;7.850;2023-06-14T10:01:24;12.18;;;3.97;;
32760;SDS011;19126;47.472;7.850;2023-06-14T10:03:54;6.90;;;4.13;;
32760;SDS011;19126;47.472;7.850;2023-06-14T10:06:27;9.82;;;3.90;;
32760;SDS011;19126;47.472;7.850;2023-06-14T10:08:57;7.75;;;3.35;;
32760;SDS011;19126;47.472;7.850;2023-06-14T10:11:27;7.03;;;4.03;;
32760;SDS011;19126;47.472;7.850;2023-06-14T10:13:55;10.32;;;3.83;;
32760;SDS011;19126;47.472;7.850;2023-06-14T10:16:24;9.60;;;3.63;;
32760;SDS011;19126;47.472;7.850;2023-06-14T10:19:00;5.78;;;3.60;;
32760;SDS011;19126;47.472;7.850;2023-06-14T10:21:37;15.45;;;3.70;;
32760;SDS011;19126;47.472;7.850;2023-06-14T10:24:15;14.23;;;3.63;;
32760;SDS011;19126;47.472;7.850;2023-06-14T10:26:54;4.57;;;3.83;;
32760;SDS011;19126;47.472;7.850;2023-06-14T10:29:23;7.28;;;3.72;;
32760;SDS011;19126;47.472;7.850;2023-06-14T10:31:56;7.03;;;3.63;;
32760;SDS011;19126;47.472;7.850;2023-06-14T10:34:26;10.73;;;3.90;;
32760;SDS011;19126;47.472;7.850;2023-06-14T10:37:02;12.18;;;3.90;;
32760;SDS011;19126;47.472;7.850;2023-06-14T10:39:31;8.15;;;3.58;;
32760;SDS011;19126;47.472;7.850;2023-06-14T10:42:06;7.88;;;3.40;;
32760;SDS011;19126;47.472;7.850;2023-06-14T10:44:38;11.73;;;3.85;;
32760;SDS011;19126;47.472;7.850;2023-06-14T10:47:09;10.75;;;4.10;;
32760;SDS011;19126;47.472;7.850;2023-06-14T10:50:04;8.30;;;3.20;;
32760;SDS011;19126;47.472;7.850;2023-06-14T10:52:34;9.25;;;3.83;;
32760;SDS011;19126;47.472;7.850;2023-06-14T10:55:05;5.28;;;3.35;;
32760;SDS011;19126;47.472;7.850;2023-06-14T10:57:37;8.50;;;3.75;;
32760;SDS011;19126;47.472;7.850;2023-06-14T11:02:49;9.90;;;4.00;;
32760;SDS011;19126;47.472;7.850;2023-06-14T11:05:42;4.40;;;3.40;;
32760;SDS011;19126;47.472;7.850;2023-06-14T11:08:30;5.75;;;3.42;;
32760;SDS011;19126;47.472;7.850;2023-06-14T11:11:17;7.93;;;3.45;;
32760;SDS011;19126;47.472;7.850;2023-06-14T11:13:50;5.30;;;3.05;;
32760;SDS011;19126;47.472;7.850;2023-06-14T11:16:18;6.05;;;3.53;;
32760;SDS011;19126;47.472;7.850;2023-06-14T11:18:45;6.20;;;3.70;;
32760;SDS011;19126;47.472;7.850;2023-06-14T11:21:15;9.25;;;4.40;;
32760;SDS011;19126;47.472;7.850;2023-06-14T11:23:48;8.48;;;3.80;;
32760;SDS011;19126;47.472;7.850;2023-06-14T11:26:24;5.63;;;3.30;;
32760;SDS011;19126;47.472;7.850;2023-06-14T11:28:56;7.50;;;3.45;;
32760;SDS011;19126;47.472;7.850;2023-06-14T11:31:24;5.95;;;3.67;;
32760;SDS011;19126;47.472;7.850;2023-06-14T11:33:53;8.82;;;3.42;;
32760;SDS011;19126;47.472;7.850;2023-06-14T11:36:21;9.30;;;3.40;;
32760;SDS011;19126;47.472;7.850;2023-06-14T11:38:49;5.97;;;3.72;;
32760;SDS011;19126;47.472;7.850;2023-06-14T11:41:24;15.85;;;3.50;;
32760;SDS011;19126;47.472;7.850;2023-06-14T11:43:52;12.20;;;3.38;;
32760;SDS011;19126;47.472;7.850;2023-06-14T11:46:21;9.25;;;3.40;;
32760;SDS011;19126;47.472;7.850;2023-06-14T11:48:49;5.82;;;3.35;;
32760;SDS011;19126;47.472;7.850;2023-06-14T11:51:19;13.55;;;4.20;;
32760;SDS011;19126;47.472;7.850;2023-06-14T11:53:46;6.60;;;3.55;;
32760;SDS011;19126;47.472;7.850;2023-06-14T11:56:14;13.98;;;3.90;;
32760;SDS011;19126;47.472;7.850;2023-06-14T11:58:42;7.38;;;3.20;;
32760;SDS011;19126;47.472;7.850;2023-06-14T12:01:13;6.35;;;3.85;;
32760;SDS011;19126;47.472;7.850;2023-06-14T12:03:48;10.70;;;3.72;;
32760;SDS011;19126;47.472;7.850;2023-06-14T12:06:16;6.85;;;3.38;;
32760;SDS011;19126;47.472;7.850;2023-06-14T12:08:58;7.38;;;4.13;;
32760;SDS011;19126;47.472;7.850;2023-06-14T12:11:28;15.27;;;4.38;;
32760;SDS011;19126;47.472;7.850;2023-06-14T12:13:59;10.85;;;3.65;;
32760;SDS011;19126;47.472;7.850;2023-06-14T12:16:30;13.27;;;3.40;;
32760;SDS011;19126;47.472;7.850;2023-06-14T12:21:36;6.05;;;3.60;;
32760;SDS011;19126;47.472;7.850;2023-06-14T12:24:05;16.85;;;4.20;;
32760;SDS011;19126;47.472;7.850;2023-06-14T12:26:33;9.70;;;3.13;;
32760;SDS011;19126;47.472;7.850;2023-06-14T12:29:06;7.03;;;3.28;;
32760;SDS011;19126;47.472;7.850;2023-06-14T12:31:33;5.28;;;3.70;;
32760;SDS011;19126;47.472;7.850;2023-06-14T12:34:02;6.10;;;3.53;;
32760;SDS011;19126;47.472;7.850;2023-06-14T12:36:30;9.00;;;4.10;;
32760;SDS011;19126;47.472;7.850;2023-06-14T12:38:57;7.70;;;3.60;;
32760;SDS011;19126;47.472;7.850;2023-06-14T12:41:24;8.35;;;3.75;;
32760;SDS011;19126;47.472;7.850;2023-06-14T12:43:52;11.80;;;3.60;;
32760;SDS011;19126;47.472;7.850;2023-06-14T12:46:19;10.57;;;4.40;;
32760;SDS011;19126;47.472;7.850;2023-06-14T12:48:47;5.82;;;3.83;;
32760;SDS011;19126;47.472;7.850;2023-06-14T12:51:15;6.95;;;4.10;;
32760;SDS011;19126;47.472;7.850;2023-06-14T12:53:43;9.55;;;3.60;;
32760;SDS011;19126;47.472;7.850;2023-06-14T12:56:10;7.65;;;3.58;;
32760;SDS011;19126;47.472;7.850;2023-06-14T12:58:37;6.22;;;4.07;;
32760;SDS011;19126;47.472;7.850;2023-06-14T13:01:05;5.47;;;3.47;;
32760;SDS011;19126;47.472;7.850;2023-06-14T13:03:32;5.38;;;3.83;;
32760;SDS011;19126;47.472;7.850;2023-06-14T13:05:59;9.85;;;3.95;;
32760;SDS011;19126;47.472;7.850;2023-06-14T13:08:30;5.43;;;3.85;;
32760;SDS011;19126;47.472;7.850;2023-06-14T13:10:57;13.45;;;4.43;;
32760;SDS011;19126;47.472;7.850;2023-06-14T13:13:25;4.43;;;3.42;;
32760;SDS011;19126;47.472;7.850;2023-06-14T13:15:52;4.57;;;3.40;;
32760;SDS011;19126;47.472;7.850;2023-06-14T13:18:20;7.85;;;3.80;;
32760;SDS011;19126;47.472;7.850;2023-06-14T13:20:47;7.35;;;3.70;;
32760;SDS011;19126;47.472;7.850;2023-06-14T13:23:15;14.85;;;3.92;;
32760;SDS011;19126;47.472;7.850;2023-06-14T13:25:44;10.00;;;3.53;;
32760;SDS011;19126;47.472;7.850;2023-06-14T13:28:11;6.13;;;3.70;;
32760;SDS011;19126;47.472;7.850;2023-06-14T13:30:39;11.40;;;4.28;;
32760;SDS011;19126;47.472;7.850;2023-06-14T13:33:06;8.77;;;3.95;;
32760;SDS011;19126;47.472;7.850;2023-06-14T13:35:33;6.80;;;3.10;;
32760;SDS011;19126;47.472;7.850;2023-06-14T13:38:01;12.00;;;3.38;;
32760;SDS011;19126;47.472;7.850;2023-06-14T13:40:28;10.77;;;4.05;;
32760;SDS011;19126;47.472;7.850;2023-06-14T13:42:57;10.77;;;4.05;;
32760;SDS011;19126;47.472;7.850;2023-06-14T13:45:24;8.65;;;3.97;;
32760;SDS011;19126;47.472;7.850;2023-06-14T13:47:52;5.15;;;3.83;;
32760;SDS011;19126;47.472;7.850;2023-06-14T13:50:20;12.55;;;4.13;;
32760;SDS011;19126;47.472;7.850;2023-06-14T13:52:47;6.07;;;3.85;;
32760;SDS011;19126;47.472;7.850;2023-06-14T13:55:14;5.30;;;3.90;;
32760;SDS011;19126;47.472;7.850;2023-06-14T13:57:42;5.30;;;3.63;;
32760;SDS011;19126;47.472;7.850;2023-06-14T14:00:12;11.70;;;3.45;;
32760;SDS011;19126;47.472;7.850;2023-06-14T14:02:40;6.53;;;4.18;;
32760;SDS011;19126;47.472;7.850;2023-06-14T14:05:08;4.18;;;3.40;;
32760;SDS011;19126;47.472;7.850;2023-06-14T14:07:35;11.15;;;4.15;;
32760;SDS011;19126;47.472;7.850;2023-06-14T14:10:05;13.20;;;3.58;;
32760;SDS011;19126;47.472;7.850;2023-06-14T14:12:34;5.60;;;4.13;;
32760;SDS011;19126;47.472;7.850;2023-06-14T14:15:04;6.90;;;4.00;;
32760;SDS011;19126;47.472;7.850;2023-06-14T14:17:39;5.50;;;3.95;;
32760;SDS011;19126;47.472;7.850;2023-06-14T14:20:07;6.63;;;4.22;;
32760;SDS011;19126;47.472;7.850;2023-06-14T14:22:37;9.18;;;4.20;;
32760;SDS011;19126;47.472;7.850;2023-06-14T14:25:06;6.18;;;3.80;;
32760;SDS011;19126;47.472;7.850;2023-06-14T14:27:34;8.85;;;3.75;;
32760;SDS011;19126;47.472;7.850;2023-06-14T14:30:01;6.38;;;4.28;;
32760;SDS011;19126;47.472;7.850;2023-06-14T14:32:29;8.50;;;4.80;;
32760;SDS011;19126;47.472;7.850;2023-06-14T14:34:57;7.15;;;4.20;;
32760;SDS011;19126;47.472;7.850;2023-06-14T14:37:25;13.55;;;4.75;;
32760;SDS011;19126;47.472;7.850;2023-06-14T14:39:52;12.60;;;4.03;;
32760;SDS011;19126;47.472;7.850;2023-06-14T14:42:19;12.38;;;4.15;;
32760;SDS011;19126;47.472;7.850;2023-06-14T14:44:47;11.07;;;4.05;;
32760;SDS011;19126;47.472;7.850;2023-06-14T14:47:14;16.65;;;4.22;;
32760;SDS011;19126;47.472;7.850;2023-06-14T14:49:41;10.52;;;4.72;;
32760;SDS011;19126;47.472;7.850;2023-06-14T14:52:10;9.80;;;4.32;;
32760;SDS011;19126;47.472;7.850;2023-06-14T14:54:39;9.52;;;4.35;;
32760;SDS011;19126;47.472;7.850;2023-06-14T14:57:06;9.57;;;4.50;;
32760;SDS011;19126;47.472;7.850;2023-06-14T14:59:33;11.20;;;5.30;;
32760;SDS011;19126;47.472;7.850;2023-06-14T15:02:01;12.70;;;4.43;;
32760;SDS011;19126;47.472;7.850;2023-06-14T15:04:28;8.70;;;3.70;;